sensor_id;sensor_type;location;lat;lon;timestamp;pressure;altitude;pressure_sealevel;temperature;humidity
75942;BME280;64622;46.220;19.878;2023-07-13T00:01:31;100167.88;;;22.80;98.45
75942;BME280;64622;46.220;19.878;2023-07-13T00:03:59;100174.16;;;22.92;98.35
75942;BME280;64622;46.220;19.878;2023-07-13T00:06:26;100169.81;;;22.79;99.75
75942;BME280;64622;46.220;19.878;2023-07-13T00:08:59;100157.69;;;22.75;99.03
75942;BME280;64622;46.220;19.878;2023-07-13T00:11:26;100161.31;;;22.92;98.56
75942;BME280;64622;46.220;19.878;2023-07-13T00:13:53;100158.59;;;22.92;98.03
75942;BME280;64622;46.220;19.878;2023-07-13T00:16:20;100164.91;;;22.93;97.64
75942;BME280;64622;46.220;19.878;2023-07-13T00:18:47;100154.09;;;22.86;98.35
75942;BME280;64622;46.220;19.878;2023-07-13T00:21:13;100146.28;;;22.78;98.56
75942;BME280;64622;46.220;19.878;2023-07-13T00:23:42;100160.31;;;22.82;98.25
75942;BME280;64622;46.220;19.878;2023-07-13T00:26:10;100165.75;;;22.82;98.65
75942;BME280;64622;46.220;19.878;2023-07-13T00:28:38;100163.50;;;22.79;98.36
75942;BME280;64622;46.220;19.878;2023-07-13T00:31:07;100151.63;;;22.85;97.82
75942;BME280;64622;46.220;19.878;2023-07-13T00:33:34;100164.06;;;22.92;97.56
75942;BME280;64622;46.220;19.878;2023-07-13T00:36:00;100163.59;;;22.84;98.08
75942;BME280;64622;46.220;19.878;2023-07-13T00:38:27;100164.06;;;22.92;97.57
75942;BME280;64622;46.220;19.878;2023-07-13T00:40:54;100159.44;;;22.93;97.48
75942;BME280;64622;46.220;19.878;2023-07-13T00:43:23;100166.63;;;23.10;96.32
75942;BME280;64622;46.220;19.878;2023-07-13T00:48:33;100164.03;;;23.32;94.84
75942;BME280;64622;46.220;19.878;2023-07-13T00:51:01;100154.81;;;23.33;94.30
75942;BME280;64622;46.220;19.878;2023-07-13T00:53:29;100158.44;;;23.38;93.97
75942;BME280;64622;46.220;19.878;2023-07-13T00:55:59;100158.69;;;23.37;93.78
75942;BME280;64622;46.220;19.878;2023-07-13T00:58:26;100153.59;;;23.40;93.48
75942;BME280;64622;46.220;19.878;2023-07-13T01:00:54;100145.03;;;23.37;93.29
75942;BME280;64622;46.220;19.878;2023-07-13T01:03:20;100152.25;;;23.43;93.14
75942;BME280;64622;46.220;19.878;2023-07-13T01:05:48;100156.56;;;23.39;93.55
75942;BME280;64622;46.220;19.878;2023-07-13T01:08:16;100146.53;;;23.28;93.83
75942;BME280;64622;46.220;19.878;2023-07-13T01:10:56;100144.25;;;23.25;94.39
75942;BME280;64622;46.220;19.878;2023-07-13T01:13:24;100126.13;;;23.19;94.76
75942;BME280;64622;46.220;19.878;2023-07-13T01:15:51;100126.47;;;23.22;94.92
75942;BME280;64622;46.220;19.878;2023-07-13T01:18:25;100112.47;;;23.19;94.70
75942;BME280;64622;46.220;19.878;2023-07-13T01:21:04;100113.38;;;23.24;94.74
75942;BME280;64622;46.220;19.878;2023-07-13T01:23:32;100096.19;;;23.24;94.60
75942;BME280;64622;46.220;19.878;2023-07-13T01:25:59;100101.66;;;23.24;94.66
75942;BME280;64622;46.220;19.878;2023-07-13T01:28:27;100095.94;;;23.25;94.26
75942;BME280;64622;46.220;19.878;2023-07-13T01:30:56;100090.38;;;23.20;94.71
75942;BME280;64622;46.220;19.878;2023-07-13T01:33:23;100099.50;;;23.14;94.88
75942;BME280;64622;46.220;19.878;2023-07-13T01:35:50;100105.31;;;22.90;97.10
75942;BME280;64622;46.220;19.878;2023-07-13T01:38:20;100120.72;;;22.56;99.95
75942;BME280;64622;46.220;19.878;2023-07-13T01:40:47;100120.12;;;22.31;100.00
75942;BME280;64622;46.220;19.878;2023-07-13T01:43:14;100118.63;;;22.47;100.00
75942;BME280;64622;46.220;19.878;2023-07-13T01:45:40;100121.66;;;22.39;100.00
75942;BME280;64622;46.220;19.878;2023-07-13T01:48:10;100130.09;;;22.49;100.00
75942;BME280;64622;46.220;19.878;2023-07-13T01:50:36;100118.84;;;22.45;100.00
75942;BME280;64622;46.220;19.878;2023-07-13T01:53:03;100109.81;;;22.45;100.00
75942;BME280;64622;46.220;19.878;2023-07-13T01:55:30;100096.53;;;22.48;100.00
75942;BME280;64622;46.220;19.878;2023-07-13T01:57:57;100103.66;;;22.49;100.00
75942;BME280;64622;46.220;19.878;2023-07-13T02:00:24;100097.59;;;22.36;100.00
75942;BME280;64622;46.220;19.878;2023-07-13T02:02:51;100106.38;;;22.38;100.00
75942;BME280;64622;46.220;19.878;2023-07-13T02:05:18;100104.34;;;22.33;100.00
75942;BME280;64622;46.220;19.878;2023-07-13T02:07:45;100103.19;;;22.29;100.00
75942;BME280;64622;46.220;19.878;2023-07-13T02:10:12;100103.31;;;22.34;100.00
75942;BME280;64622;46.220;19.878;2023-07-13T02:12:40;100096.66;;;22.30;100.00
75942;BME280;64622;46.220;19.878;2023-07-13T02:15:08;100086.47;;;22.26;100.00
75942;BME280;64622;46.220;19.878;2023-07-13T02:17:36;100089.28;;;22.31;100.00
75942;BME280;64622;46.220;19.878;2023-07-13T02:20:03;100093.09;;;22.41;100.00
75942;BME280;64622;46.220;19.878;2023-07-13T02:22:31;100081.75;;;22.44;100.00
75942;BME280;64622;46.220;19.878;2023-07-13T02:24:58;100076.47;;;22.43;100.00
75942;BME280;64622;46.220;19.878;2023-07-13T02:27:24;100094.50;;;22.32;100.00
75942;BME280;64622;46.220;19.878;2023-07-13T02:29:52;100087.19;;;21.98;100.00
75942;BME280;64622;46.220;19.878;2023-07-13T02:32:20;100080.31;;;22.07;100.00
75942;BME280;64622;46.220;19.878;2023-07-13T02:34:47;100085.41;;;22.04;100.00
75942;BME280;64622;46.220;19.878;2023-07-13T02:37:13;100088.72;;;22.17;100.00
75942;BME280;64622;46.220;19.878;2023-07-13T02:39:40;100076.28;;;22.21;100.00
75942;BME280;64622;46.220;19.878;2023-07-13T02:42:07;100081.50;;;22.23;100.00
75942;BME280;64622;46.220;19.878;2023-07-13T02:44:34;100091.91;;;22.26;100.00
75942;BME280;64622;46.220;19.878;2023-07-13T02:47:00;100084.34;;;22.16;100.00
75942;BME280;64622;46.220;19.878;2023-07-13T02:49:27;100094.19;;;22.17;100.00
75942;BME280;64622;46.220;19.878;2023-07-13T02:51:54;100101.66;;;22.22;100.00
75942;BME280;64622;46.220;19.878;2023-07-13T02:54:21;100096.44;;;22.20;100.00
75942;BME280;64622;46.220;19.878;2023-07-13T02:56:50;100087.78;;;22.12;100.00
75942;BME280;64622;46.220;19.878;2023-07-13T02:59:17;100088.84;;;22.11;100.00
75942;BME280;64622;46.220;19.878;2023-07-13T03:01:44;100104.38;;;22.10;100.00
75942;BME280;64622;46.220;19.878;2023-07-13T03:04:10;100090.53;;;22.00;100.00
75942;BME280;64622;46.220;19.878;2023-07-13T03:06:39;100083.66;;;21.98;100.00
75942;BME280;64622;46.220;19.878;2023-07-13T03:09:07;100086.59;;;21.96;100.00
75942;BME280;64622;46.220;19.878;2023-07-13T03:11:34;100086.03;;;21.94;100.00
75942;BME280;64622;46.220;19.878;2023-07-13T03:14:02;100086.59;;;21.96;100.00
75942;BME280;64622;46.220;19.878;2023-07-13T03:16:29;100105.47;;;21.98;100.00
75942;BME280;64622;46.220;19.878;2023-07-13T03:18:56;100091.34;;;22.01;100.00
75942;BME280;64622;46.220;19.878;2023-07-13T03:21:23;100106.28;;;22.10;100.00
75942;BME280;64622;46.220;19.878;2023-07-13T03:23:50;100109.50;;;22.07;100.00
75942;BME280;64622;46.220;19.878;2023-07-13T03:26:19;100114.91;;;22.18;100.00
75942;BME280;64622;46.220;19.878;2023-07-13T03:28:46;100111.16;;;22.19;100.00
75942;BME280;64622;46.220;19.878;2023-07-13T03:31:17;100113.03;;;22.30;100.00
75942;BME280;64622;46.220;19.878;2023-07-13T03:33:44;100120.28;;;22.48;100.00
75942;BME280;64622;46.220;19.878;2023-07-13T03:36:16;100106.97;;;22.51;100.00
75942;BME280;64622;46.220;19.878;2023-07-13T03:38:52;100105.78;;;22.59;99.86
75942;BME280;64622;46.220;19.878;2023-07-13T03:41:21;100129.38;;;22.53;100.00
75942;BME280;64622;46.220;19.878;2023-07-13T03:43:49;100120.94;;;22.66;99.91
75942;BME280;64622;46.220;19.878;2023-07-13T03:46:17;100126.16;;;22.68;99.80
75942;BME280;64622;46.220;19.878;2023-07-13T03:48:45;100133.59;;;22.72;99.94
75942;BME280;64622;46.220;19.878;2023-07-13T03:51:15;100112.81;;;22.83;99.60
75942;BME280;64622;46.220;19.878;2023-07-13T03:53:43;100098.00;;;22.79;99.13
75942;BME280;64622;46.220;19.878;2023-07-13T03:56:12;100099.91;;;23.06;98.56
75942;BME280;64622;46.220;19.878;2023-07-13T03:58:42;100100.81;;;23.23;97.72
75942;BME280;64622;46.220;19.878;2023-07-13T04:01:10;100085.09;;;23.30;97.20
75942;BME280;64622;46.220;19.878;2023-07-13T04:03:39;100080.47;;;23.31;96.75
75942;BME280;64622;46.220;19.878;2023-07-13T04:06:08;100082.88;;;23.44;96.94
75942;BME280;64622;46.220;19.878;2023-07-13T04:08:42;100084.22;;;23.58;96.37
75942;BME280;64622;46.220;19.878;2023-07-13T04:11:09;100083.31;;;23.69;95.86
75942;BME280;64622;46.220;19.878;2023-07-13T04:13:35;100096.38;;;23.83;95.82
75942;BME280;64622;46.220;19.878;2023-07-13T04:16:02;100085.88;;;24.08;94.24
75942;BME280;64622;46.220;19.878;2023-07-13T04:18:28;100074.97;;;24.30;93.02
75942;BME280;64622;46.220;19.878;2023-07-13T04:20:55;100092.50;;;24.50;91.94
75942;BME280;64622;46.220;19.878;2023-07-13T04:23:22;100077.34;;;24.64;90.84
75942;BME280;64622;46.220;19.878;2023-07-13T04:25:51;100091.16;;;24.96;89.58
75942;BME280;64622;46.220;19.878;2023-07-13T04:28:21;100106.94;;;25.10;87.05
75942;BME280;64622;46.220;19.878;2023-07-13T04:30:48;100128.06;;;25.15;85.85
75942;BME280;64622;46.220;19.878;2023-07-13T04:33:15;100137.94;;;25.37;84.54
75942;BME280;64622;46.220;19.878;2023-07-13T04:35:50;100148.50;;;25.50;84.70
75942;BME280;64622;46.220;19.878;2023-07-13T04:38:27;100146.00;;;25.49;84.11
75942;BME280;64622;46.220;19.878;2023-07-13T04:40:56;100173.97;;;25.77;84.52
75942;BME280;64622;46.220;19.878;2023-07-13T04:43:23;100189.13;;;25.85;83.10
75942;BME280;64622;46.220;19.878;2023-07-13T04:45:53;100212.69;;;26.07;83.29
75942;BME280;64622;46.220;19.878;2023-07-13T04:48:21;100230.94;;;25.97;83.35
75942;BME280;64622;46.220;19.878;2023-07-13T04:50:48;100248.91;;;25.88;83.26
75942;BME280;64622;46.220;19.878;2023-07-13T04:53:19;100259.53;;;25.79;83.12
75942;BME280;64622;46.220;19.878;2023-07-13T04:55:46;100257.50;;;25.43;84.44
75942;BME280;64622;46.220;19.878;2023-07-13T04:58:13;100268.09;;;25.18;86.60
75942;BME280;64622;46.220;19.878;2023-07-13T05:00:39;100277.22;;;24.86;87.79
75942;BME280;64622;46.220;19.878;2023-07-13T05:03:06;100288.78;;;24.71;92.07
75942;BME280;64622;46.220;19.878;2023-07-13T05:05:33;100290.25;;;24.46;93.31
75942;BME280;64622;46.220;19.878;2023-07-13T05:08:00;100263.25;;;24.33;94.47
75942;BME280;64622;46.220;19.878;2023-07-13T05:10:27;100244.91;;;24.50;93.71
75942;BME280;64622;46.220;19.878;2023-07-13T05:12:53;100210.16;;;24.67;93.85
75942;BME280;64622;46.220;19.878;2023-07-13T05:15:23;100256.34;;;24.80;96.44
75942;BME280;64622;46.220;19.878;2023-07-13T05:17:50;100260.41;;;24.77;95.48
75942;BME280;64622;46.220;19.878;2023-07-13T05:20:18;100279.25;;;24.74;95.01
75942;BME280;64622;46.220;19.878;2023-07-13T05:22:45;100292.53;;;24.65;95.44
75942;BME280;64622;46.220;19.878;2023-07-13T05:25:15;100335.50;;;24.37;97.47
75942;BME280;64622;46.220;19.878;2023-07-13T05:30:08;100335.44;;;24.15;99.59
75942;BME280;64622;46.220;19.878;2023-07-13T05:32:37;100342.78;;;24.15;98.71
75942;BME280;64622;46.220;19.878;2023-07-13T05:35:05;100372.97;;;24.20;96.09
75942;BME280;64622;46.220;19.878;2023-07-13T05:37:31;100362.03;;;24.20;94.29
75942;BME280;64622;46.220;19.878;2023-07-13T05:39:58;100370.75;;;24.33;92.04
75942;BME280;64622;46.220;19.878;2023-07-13T05:42:25;100385.66;;;24.26;92.12
75942;BME280;64622;46.220;19.878;2023-07-13T05:44:51;100377.34;;;24.21;92.54
75942;BME280;64622;46.220;19.878;2023-07-13T05:47:18;100381.19;;;24.20;91.68
75942;BME280;64622;46.220;19.878;2023-07-13T05:49:45;100406.78;;;24.14;92.28
75942;BME280;64622;46.220;19.878;2023-07-13T05:52:11;100426.91;;;24.08;92.32
75942;BME280;64622;46.220;19.878;2023-07-13T05:54:38;100400.50;;;24.02;90.75
75942;BME280;64622;46.220;19.878;2023-07-13T05:57:05;100397.31;;;23.93;89.00
75942;BME280;64622;46.220;19.878;2023-07-13T05:59:31;100388.56;;;23.91;88.56
75942;BME280;64622;46.220;19.878;2023-07-13T06:01:58;100342.31;;;23.78;88.28
75942;BME280;64622;46.220;19.878;2023-07-13T06:04:24;100277.13;;;23.70;88.78
75942;BME280;64622;46.220;19.878;2023-07-13T06:06:51;100352.31;;;21.76;99.48
75942;BME280;64622;46.220;19.878;2023-07-13T06:09:17;100330.59;;;21.51;100.00
75942;BME280;64622;46.220;19.878;2023-07-13T06:11:44;100306.94;;;21.52;100.00
75942;BME280;64622;46.220;19.878;2023-07-13T06:14:11;100291.25;;;21.47;100.00
75942;BME280;64622;46.220;19.878;2023-07-13T06:16:39;100302.66;;;21.56;100.00
75942;BME280;64622;46.220;19.878;2023-07-13T06:19:07;100298.72;;;21.70;100.00
75942;BME280;64622;46.220;19.878;2023-07-13T06:21:34;100362.44;;;21.87;100.00
75942;BME280;64622;46.220;19.878;2023-07-13T06:24:00;100340.94;;;21.97;100.00
75942;BME280;64622;46.220;19.878;2023-07-13T06:26:27;100331.87;;;22.26;100.00
75942;BME280;64622;46.220;19.878;2023-07-13T06:28:54;100312.78;;;22.67;100.00
75942;BME280;64622;46.220;19.878;2023-07-13T06:31:21;100295.66;;;23.06;100.00
75942;BME280;64622;46.220;19.878;2023-07-13T06:33:48;100287.78;;;23.44;100.00
75942;BME280;64622;46.220;19.878;2023-07-13T06:36:14;100272.69;;;24.25;99.72
75942;BME280;64622;46.220;19.878;2023-07-13T06:38:41;100314.84;;;24.74;99.84
75942;BME280;64622;46.220;19.878;2023-07-13T06:41:08;100308.03;;;24.60;99.86
75942;BME280;64622;46.220;19.878;2023-07-13T06:43:35;100299.47;;;24.40;99.93
75942;BME280;64622;46.220;19.878;2023-07-13T06:46:01;100301.63;;;24.38;100.00
75942;BME280;64622;46.220;19.878;2023-07-13T06:48:28;100284.50;;;24.59;100.00
75942;BME280;64622;46.220;19.878;2023-07-13T06:50:55;100278.72;;;24.27;100.00
75942;BME280;64622;46.220;19.878;2023-07-13T06:53:23;100266.12;;;24.26;99.99
75942;BME280;64622;46.220;19.878;2023-07-13T06:55:50;100268.13;;;24.31;99.66
75942;BME280;64622;46.220;19.878;2023-07-13T06:58:18;100265.72;;;24.84;98.64
75942;BME280;64622;46.220;19.878;2023-07-13T07:00:45;100247.22;;;25.12;98.13
75942;BME280;64622;46.220;19.878;2023-07-13T07:03:13;100246.81;;;25.04;97.70
75942;BME280;64622;46.220;19.878;2023-07-13T07:05:39;100250.16;;;25.49;95.85
75942;BME280;64622;46.220;19.878;2023-07-13T07:08:06;100245.41;;;25.66;96.03
75942;BME280;64622;46.220;19.878;2023-07-13T07:10:34;100230.69;;;25.98;94.67
75942;BME280;64622;46.220;19.878;2023-07-13T07:13:01;100224.41;;;26.03;93.82
75942;BME280;64622;46.220;19.878;2023-07-13T07:15:28;100222.00;;;26.06;93.64
75942;BME280;64622;46.220;19.878;2023-07-13T07:17:55;100231.25;;;26.00;92.41
75942;BME280;64622;46.220;19.878;2023-07-13T07:20:22;100220.69;;;26.14;92.43
75942;BME280;64622;46.220;19.878;2023-07-13T07:22:48;100229.63;;;26.67;90.79
75942;BME280;64622;46.220;19.878;2023-07-13T07:25:15;100236.59;;;26.85;90.37
75942;BME280;64622;46.220;19.878;2023-07-13T07:27:43;100226.19;;;26.92;88.47
75942;BME280;64622;46.220;19.878;2023-07-13T07:30:10;100229.75;;;26.87;87.57
75942;BME280;64622;46.220;19.878;2023-07-13T07:32:37;100243.72;;;27.27;86.55
75942;BME280;64622;46.220;19.878;2023-07-13T07:35:03;100228.72;;;27.55;85.32
75942;BME280;64622;46.220;19.878;2023-07-13T07:37:30;100231.28;;;27.15;85.28
75942;BME280;64622;46.220;19.878;2023-07-13T07:39:57;100245.81;;;27.77;81.61
75942;BME280;64622;46.220;19.878;2023-07-13T07:42:24;100247.37;;;27.53;81.10
75942;BME280;64622;46.220;19.878;2023-07-13T07:44:51;100254.28;;;27.65;80.42
75942;BME280;64622;46.220;19.878;2023-07-13T07:47:18;100248.16;;;27.38;79.45
75942;BME280;64622;46.220;19.878;2023-07-13T07:49:45;100242.75;;;27.63;78.92
75942;BME280;64622;46.220;19.878;2023-07-13T07:52:11;100248.25;;;27.63;78.62
75942;BME280;64622;46.220;19.878;2023-07-13T07:54:38;100252.22;;;27.97;77.77
75942;BME280;64622;46.220;19.878;2023-07-13T07:57:05;100246.44;;;28.04;79.04
75942;BME280;64622;46.220;19.878;2023-07-13T07:59:31;100268.47;;;28.09;78.20
75942;BME280;64622;46.220;19.878;2023-07-13T08:01:58;100266.69;;;27.73;80.27
75942;BME280;64622;46.220;19.878;2023-07-13T08:04:25;100269.53;;;28.08;78.97
75942;BME280;64622;46.220;19.878;2023-07-13T08:06:51;100279.75;;;28.12;79.21
75942;BME280;64622;46.220;19.878;2023-07-13T08:09:18;100276.19;;;28.67;76.44
75942;BME280;64622;46.220;19.878;2023-07-13T08:11:45;100274.28;;;28.42;75.42
75942;BME280;64622;46.220;19.878;2023-07-13T08:14:11;100278.66;;;28.83;74.50
75942;BME280;64622;46.220;19.878;2023-07-13T08:16:38;100285.69;;;29.44;71.85
75942;BME280;64622;46.220;19.878;2023-07-13T08:19:05;100278.75;;;29.52;71.27
75942;BME280;64622;46.220;19.878;2023-07-13T08:21:32;100296.81;;;29.14;69.90
75942;BME280;64622;46.220;19.878;2023-07-13T08:23:59;100284.97;;;29.09;70.62
75942;BME280;64622;46.220;19.878;2023-07-13T08:26:25;100296.41;;;29.51;67.55
75942;BME280;64622;46.220;19.878;2023-07-13T08:28:52;100292.72;;;29.75;67.18
75942;BME280;64622;46.220;19.878;2023-07-13T08:31:18;100287.94;;;29.96;66.80
75942;BME280;64622;46.220;19.878;2023-07-13T08:33:45;100291.09;;;30.23;66.04
75942;BME280;64622;46.220;19.878;2023-07-13T08:36:11;100278.13;;;30.85;64.01
75942;BME280;64622;46.220;19.878;2023-07-13T08:38:38;100288.56;;;30.93;62.51
75942;BME280;64622;46.220;19.878;2023-07-13T08:41:14;100287.97;;;30.68;63.59
75942;BME280;64622;46.220;19.878;2023-07-13T08:43:44;100279.41;;;30.69;63.48
75942;BME280;64622;46.220;19.878;2023-07-13T08:46:18;100274.50;;;30.23;65.69
75942;BME280;64622;46.220;19.878;2023-07-13T08:48:49;100281.66;;;30.62;61.99
75942;BME280;64622;46.220;19.878;2023-07-13T08:51:32;100289.53;;;30.79;61.94
75942;BME280;64622;46.220;19.878;2023-07-13T08:54:03;100274.47;;;30.90;60.37
75942;BME280;64622;46.220;19.878;2023-07-13T08:56:32;100280.41;;;31.07;61.87
75942;BME280;64622;46.220;19.878;2023-07-13T08:59:11;100269.28;;;31.59;58.82
75942;BME280;64622;46.220;19.878;2023-07-13T09:04:50;100272.19;;;32.60;55.67
75942;BME280;64622;46.220;19.878;2023-07-13T09:07:31;100270.97;;;32.85;54.75
75942;BME280;64622;46.220;19.878;2023-07-13T09:12:40;100274.09;;;33.24;53.13
75942;BME280;64622;46.220;19.878;2023-07-13T09:15:23;100268.28;;;31.50;57.80
75942;BME280;64622;46.220;19.878;2023-07-13T09:17:52;100270.31;;;32.42;54.14
75942;BME280;64622;46.220;19.878;2023-07-13T09:20:35;100269.81;;;33.45;51.50
75942;BME280;64622;46.220;19.878;2023-07-13T09:23:09;100264.53;;;33.16;51.69
75942;BME280;64622;46.220;19.878;2023-07-13T09:25:38;100265.66;;;33.83;50.69
75942;BME280;64622;46.220;19.878;2023-07-13T09:31:11;100257.25;;;31.27;56.76
75942;BME280;64622;46.220;19.878;2023-07-13T09:33:40;100259.59;;;33.13;50.39
75942;BME280;64622;46.220;19.878;2023-07-13T09:36:28;100266.94;;;34.56;46.99
75942;BME280;64622;46.220;19.878;2023-07-13T09:42:05;100257.63;;;33.68;45.17
75942;BME280;64622;46.220;19.878;2023-07-13T09:44:42;100265.94;;;33.68;45.70
75942;BME280;64622;46.220;19.878;2023-07-13T09:47:17;100265.69;;;31.59;51.58
75942;BME280;64622;46.220;19.878;2023-07-13T09:49:44;100275.63;;;33.57;45.42
75942;BME280;64622;46.220;19.878;2023-07-13T09:52:15;100269.91;;;33.40;45.24
75942;BME280;64622;46.220;19.878;2023-07-13T09:54:49;100281.47;;;33.69;44.55
75942;BME280;64622;46.220;19.878;2023-07-13T09:57:18;100280.31;;;33.97;43.00
75942;BME280;64622;46.220;19.878;2023-07-13T09:59:48;100285.47;;;34.25;42.94
75942;BME280;64622;46.220;19.878;2023-07-13T10:04:56;100283.84;;;33.75;44.29
75942;BME280;64622;46.220;19.878;2023-07-13T10:07:24;100271.91;;;32.75;45.09
75942;BME280;64622;46.220;19.878;2023-07-13T10:09:52;100276.38;;;33.35;44.32
75942;BME280;64622;46.220;19.878;2023-07-13T10:12:21;100284.81;;;34.06;42.75
75942;BME280;64622;46.220;19.878;2023-07-13T10:14:52;100279.47;;;34.98;40.59
75942;BME280;64622;46.220;19.878;2023-07-13T10:17:29;100279.31;;;33.25;44.77
75942;BME280;64622;46.220;19.878;2023-07-13T10:20:02;100278.41;;;33.57;45.80
75942;BME280;64622;46.220;19.878;2023-07-13T10:22:54;100275.13;;;33.82;44.23
75942;BME280;64622;46.220;19.878;2023-07-13T10:25:24;100273.56;;;33.76;44.08
75942;BME280;64622;46.220;19.878;2023-07-13T10:27:55;100279.25;;;34.20;42.66
75942;BME280;64622;46.220;19.878;2023-07-13T10:30:28;100288.06;;;34.79;41.81
75942;BME280;64622;46.220;19.878;2023-07-13T10:32:59;100281.47;;;34.53;41.79
75942;BME280;64622;46.220;19.878;2023-07-13T10:35:27;100280.59;;;34.09;42.58
75942;BME280;64622;46.220;19.878;2023-07-13T10:38:04;100282.38;;;32.97;44.63
75942;BME280;64622;46.220;19.878;2023-07-13T10:40:39;100272.62;;;35.04;40.34
75942;BME280;64622;46.220;19.878;2023-07-13T10:43:19;100283.28;;;35.02;41.85
75942;BME280;64622;46.220;19.878;2023-07-13T10:45:50;100268.25;;;34.59;42.47
75942;BME280;64622;46.220;19.878;2023-07-13T10:49:47;100280.03;;;36.54;39.25
75942;BME280;64622;46.220;19.878;2023-07-13T10:55:31;100283.34;;;35.58;40.74
75942;BME280;64622;46.220;19.878;2023-07-13T10:58:11;100270.87;;;35.16;40.26
75942;BME280;64622;46.220;19.878;2023-07-13T11:01:12;100279.38;;;35.42;39.62
75942;BME280;64622;46.220;19.878;2023-07-13T11:06:14;100276.44;;;35.47;40.20
75942;BME280;64622;46.220;19.878;2023-07-13T11:18:48;100270.81;;;34.99;40.70
75942;BME280;64622;46.220;19.878;2023-07-13T11:21:17;100278.25;;;35.51;40.09
75942;BME280;64622;46.220;19.878;2023-07-13T11:23:51;100280.41;;;35.63;39.24
75942;BME280;64622;46.220;19.878;2023-07-13T11:26:50;100263.69;;;35.54;39.46
75942;BME280;64622;46.220;19.878;2023-07-13T11:31:52;100268.09;;;36.28;38.83
75942;BME280;64622;46.220;19.878;2023-07-13T11:34:34;100261.00;;;35.97;39.36
75942;BME280;64622;46.220;19.878;2023-07-13T11:37:02;100255.97;;;36.24;38.27
75942;BME280;64622;46.220;19.878;2023-07-13T11:39:35;100258.44;;;35.61;39.96
75942;BME280;64622;46.220;19.878;2023-07-13T11:42:07;100263.22;;;35.52;39.89
75942;BME280;64622;46.220;19.878;2023-07-13T11:44:43;100255.09;;;33.44;45.12
75942;BME280;64622;46.220;19.878;2023-07-13T11:47:16;100264.59;;;35.33;40.67
75942;BME280;64622;46.220;19.878;2023-07-13T11:49:45;100268.88;;;36.03;38.46
75942;BME280;64622;46.220;19.878;2023-07-13T11:52:28;100257.87;;;34.73;41.04
75942;BME280;64622;46.220;19.878;2023-07-13T11:55:00;100261.00;;;36.56;37.64
75942;BME280;64622;46.220;19.878;2023-07-13T11:57:31;100262.03;;;36.43;37.26
75942;BME280;64622;46.220;19.878;2023-07-13T12:00:11;100257.00;;;35.64;38.48
75942;BME280;64622;46.220;19.878;2023-07-13T12:02:42;100261.44;;;35.65;38.54
75942;BME280;64622;46.220;19.878;2023-07-13T12:05:12;100270.75;;;35.69;37.70
75942;BME280;64622;46.220;19.878;2023-07-13T12:07:39;100273.53;;;35.69;38.11
75942;BME280;64622;46.220;19.878;2023-07-13T12:12:36;100270.06;;;35.07;40.87
75942;BME280;64622;46.220;19.878;2023-07-13T12:15:07;100257.97;;;35.68;38.93
75942;BME280;64622;46.220;19.878;2023-07-13T12:17:35;100273.47;;;35.04;39.49
75942;BME280;64622;46.220;19.878;2023-07-13T12:20:17;100255.75;;;34.70;40.36
75942;BME280;64622;46.220;19.878;2023-07-13T12:22:48;100278.03;;;35.00;39.91
75942;BME280;64622;46.220;19.878;2023-07-13T12:25:16;100260.66;;;35.90;38.49
75942;BME280;64622;46.220;19.878;2023-07-13T12:27:48;100276.25;;;35.99;37.27
75942;BME280;64622;46.220;19.878;2023-07-13T12:33:15;100260.44;;;35.69;39.08
75942;BME280;64622;46.220;19.878;2023-07-13T12:35:46;100254.78;;;36.08;38.68
75942;BME280;64622;46.220;19.878;2023-07-13T12:38:16;100253.47;;;36.31;38.20
75942;BME280;64622;46.220;19.878;2023-07-13T12:40:43;100257.56;;;36.08;37.61
75942;BME280;64622;46.220;19.878;2023-07-13T12:43:13;100266.03;;;35.69;39.28
75942;BME280;64622;46.220;19.878;2023-07-13T12:45:55;100258.41;;;35.36;39.75
75942;BME280;64622;46.220;19.878;2023-07-13T12:48:22;100257.09;;;36.40;37.27
75942;BME280;64622;46.220;19.878;2023-07-13T12:50:49;100261.66;;;35.29;38.81
75942;BME280;64622;46.220;19.878;2023-07-13T12:53:24;100253.25;;;34.90;39.81
75942;BME280;64622;46.220;19.878;2023-07-13T12:55:57;100253.63;;;36.09;37.77
75942;BME280;64622;46.220;19.878;2023-07-13T12:58:40;100261.84;;;35.41;39.05
75942;BME280;64622;46.220;19.878;2023-07-13T13:01:13;100270.31;;;35.75;38.43
75942;BME280;64622;46.220;19.878;2023-07-13T13:03:45;100260.19;;;35.96;37.64
75942;BME280;64622;46.220;19.878;2023-07-13T13:08:42;100258.84;;;35.77;37.90
75942;BME280;64622;46.220;19.878;2023-07-13T13:11:10;100250.78;;;35.67;38.08
75942;BME280;64622;46.220;19.878;2023-07-13T13:13:36;100249.56;;;34.29;40.16
75942;BME280;64622;46.220;19.878;2023-07-13T13:16:17;100256.16;;;35.55;38.78
75942;BME280;64622;46.220;19.878;2023-07-13T13:18:46;100250.84;;;35.36;38.81
75942;BME280;64622;46.220;19.878;2023-07-13T13:21:13;100246.41;;;35.83;38.60
75942;BME280;64622;46.220;19.878;2023-07-13T13:23:39;100241.16;;;35.90;38.00
75942;BME280;64622;46.220;19.878;2023-07-13T13:26:11;100239.69;;;35.84;37.77
75942;BME280;64622;46.220;19.878;2023-07-13T13:28:38;100239.47;;;35.16;39.68
75942;BME280;64622;46.220;19.878;2023-07-13T13:31:04;100239.63;;;35.58;39.10
75942;BME280;64622;46.220;19.878;2023-07-13T13:33:33;100233.97;;;35.33;39.18
75942;BME280;64622;46.220;19.878;2023-07-13T13:36:00;100245.78;;;35.30;39.13